sensor_id;sensor_type;location;lat;lon;timestamp;pressure;altitude;pressure_sealevel;temperature;humidity
37972;BME280;23794;48.234;8.344;2023-05-14T00:00:30;94261.38;;;7.69;80.94
37972;BME280;23794;48.234;8.344;2023-05-14T00:02:56;94262.97;;;7.74;80.38
37972;BME280;23794;48.234;8.344;2023-05-14T00:05:24;94259.09;;;7.75;80.66
37972;BME280;23794;48.234;8.344;2023-05-14T00:07:50;94249.75;;;7.76;80.43
37972;BME280;23794;48.234;8.344;2023-05-14T00:10:17;94253.25;;;7.80;81.24
37972;BME280;23794;48.234;8.344;2023-05-14T00:12:46;94258.75;;;7.87;81.65
37972;BME280;23794;48.234;8.344;2023-05-14T00:15:13;94250.59;;;7.91;81.13
37972;BME280;23794;48.234;8.344;2023-05-14T00:17:40;94252.59;;;8.01;80.55
37972;BME280;23794;48.234;8.344;2023-05-14T00:20:08;94247.53;;;8.07;79.91
37972;BME280;23794;48.234;8.344;2023-05-14T00:22:38;94252.97;;;8.07;80.30
37972;BME280;23794;48.234;8.344;2023-05-14T00:25:06;94239.72;;;8.05;81.27
37972;BME280;23794;48.234;8.344;2023-05-14T00:27:34;94249.06;;;8.00;81.25
37972;BME280;23794;48.234;8.344;2023-05-14T00:30:02;94250.69;;;8.16;81.18
37972;BME280;23794;48.234;8.344;2023-05-14T00:32:29;94252.66;;;8.23;80.18
37972;BME280;23794;48.234;8.344;2023-05-14T00:34:56;94250.34;;;8.25;80.76
37972;BME280;23794;48.234;8.344;2023-05-14T00:37:23;94242.94;;;8.25;80.28
37972;BME280;23794;48.234;8.344;2023-05-14T00:39:50;94242.16;;;8.25;80.19
37972;BME280;23794;48.234;8.344;2023-05-14T00:42:17;94235.91;;;8.24;80.21
37972;BME280;23794;48.234;8.344;2023-05-14T00:44:43;94236.72;;;8.35;80.03
37972;BME280;23794;48.234;8.344;2023-05-14T00:47:10;94229.72;;;8.34;80.21
37972;BME280;23794;48.234;8.344;2023-05-14T00:49:37;94227.00;;;8.45;79.44
37972;BME280;23794;48.234;8.344;2023-05-14T00:52:06;94229.72;;;8.42;79.86
37972;BME280;23794;48.234;8.344;2023-05-14T00:54:34;94228.16;;;8.41;79.72
37972;BME280;23794;48.234;8.344;2023-05-14T00:57:02;94222.28;;;8.39;80.41
37972;BME280;23794;48.234;8.344;2023-05-14T00:59:30;94226.22;;;8.48;80.59
37972;BME280;23794;48.234;8.344;2023-05-14T01:01:57;94220.41;;;8.54;80.38
37972;BME280;23794;48.234;8.344;2023-05-14T01:04:24;94211.41;;;8.60;80.05
37972;BME280;23794;48.234;8.344;2023-05-14T01:10:36;94216.06;;;8.34;79.46
37972;BME280;23794;48.234;8.344;2023-05-14T01:15:27;94219.97;;;8.44;79.34
37972;BME280;23794;48.234;8.344;2023-05-14T01:18:06;94209.81;;;8.38;79.90
37972;BME280;23794;48.234;8.344;2023-05-14T01:20:34;94219.94;;;8.26;80.20
37972;BME280;23794;48.234;8.344;2023-05-14T01:23:02;94205.13;;;8.24;80.26
37972;BME280;23794;48.234;8.344;2023-05-14T01:25:29;94213.34;;;8.34;79.67
37972;BME280;23794;48.234;8.344;2023-05-14T01:31:06;94203.19;;;8.42;79.30
37972;BME280;23794;48.234;8.344;2023-05-14T01:33:35;94205.94;;;8.42;79.30
37972;BME280;23794;48.234;8.344;2023-05-14T01:36:02;94208.28;;;8.44;79.11
37972;BME280;23794;48.234;8.344;2023-05-14T01:38:30;94208.66;;;8.46;79.48
37972;BME280;23794;48.234;8.344;2023-05-14T01:41:00;94205.94;;;8.42;80.54
37972;BME280;23794;48.234;8.344;2023-05-14T01:43:27;94208.66;;;8.49;80.16
37972;BME280;23794;48.234;8.344;2023-05-14T01:45:55;94205.16;;;8.45;80.48
37972;BME280;23794;48.234;8.344;2023-05-14T01:48:23;94203.19;;;8.46;81.03
37972;BME280;23794;48.234;8.344;2023-05-14T01:50:50;94204.75;;;8.43;80.38
37972;BME280;23794;48.234;8.344;2023-05-14T01:53:17;94203.59;;;8.51;80.03
37972;BME280;23794;48.234;8.344;2023-05-14T01:55:44;94201.66;;;8.56;79.94
37972;BME280;23794;48.234;8.344;2023-05-14T01:58:11;94198.16;;;8.59;80.24
37972;BME280;23794;48.234;8.344;2023-05-14T02:00:38;94195.44;;;8.55;80.23
37972;BME280;23794;48.234;8.344;2023-05-14T02:03:04;94196.59;;;8.54;80.37
37972;BME280;23794;48.234;8.344;2023-05-14T02:05:31;94195.81;;;8.54;80.54
37972;BME280;23794;48.234;8.344;2023-05-14T02:07:58;94193.84;;;8.50;80.46
37972;BME280;23794;48.234;8.344;2023-05-14T02:10:25;94195.00;;;8.42;80.95
37972;BME280;23794;48.234;8.344;2023-05-14T02:12:51;94198.91;;;8.38;80.66
37972;BME280;23794;48.234;8.344;2023-05-14T02:15:18;94198.13;;;8.44;80.32
37972;BME280;23794;48.234;8.344;2023-05-14T02:17:45;94196.19;;;8.45;80.41
37972;BME280;23794;48.234;8.344;2023-05-14T02:20:12;94200.47;;;8.39;80.97
37972;BME280;23794;48.234;8.344;2023-05-14T02:22:39;94200.09;;;8.40;81.01
37972;BME280;23794;48.234;8.344;2023-05-14T02:25:08;94204.00;;;8.43;80.64
37972;BME280;23794;48.234;8.344;2023-05-14T02:27:34;94202.03;;;8.47;80.88
37972;BME280;23794;48.234;8.344;2023-05-14T02:30:02;94197.00;;;8.56;80.52
37972;BME280;23794;48.234;8.344;2023-05-14T02:32:28;94203.22;;;8.57;80.71
37972;BME280;23794;48.234;8.344;2023-05-14T02:34:55;94200.13;;;8.55;80.83
37972;BME280;23794;48.234;8.344;2023-05-14T02:37:22;94201.28;;;8.61;80.71
37972;BME280;23794;48.234;8.344;2023-05-14T02:39:49;94199.72;;;8.56;80.92
37972;BME280;23794;48.234;8.344;2023-05-14T02:42:16;94200.50;;;8.57;81.00
37972;BME280;23794;48.234;8.344;2023-05-14T02:44:42;94196.97;;;8.52;80.87
37972;BME280;23794;48.234;8.344;2023-05-14T02:47:09;94198.91;;;8.56;81.05
37972;BME280;23794;48.234;8.344;2023-05-14T02:49:36;94201.66;;;8.59;80.94
37972;BME280;23794;48.234;8.344;2023-05-14T02:52:02;94198.16;;;8.62;80.62
37972;BME280;23794;48.234;8.344;2023-05-14T02:54:29;94200.50;;;8.67;80.06
37972;BME280;23794;48.234;8.344;2023-05-14T02:56:56;94191.53;;;8.67;80.25
37972;BME280;23794;48.234;8.344;2023-05-14T02:59:23;94189.97;;;8.62;80.51
37972;BME280;23794;48.234;8.344;2023-05-14T03:01:50;94188.81;;;8.60;81.19
37972;BME280;23794;48.234;8.344;2023-05-14T03:04:17;94193.47;;;8.52;81.47
37972;BME280;23794;48.234;8.344;2023-05-14T03:06:44;94186.47;;;8.47;81.26
37972;BME280;23794;48.234;8.344;2023-05-14T03:09:10;94191.13;;;8.50;81.60
37972;BME280;23794;48.234;8.344;2023-05-14T03:11:37;94182.94;;;8.61;80.88
37972;BME280;23794;48.234;8.344;2023-05-14T03:14:04;94178.66;;;8.64;80.69
37972;BME280;23794;48.234;8.344;2023-05-14T03:16:30;94177.50;;;8.65;80.72
37972;BME280;23794;48.234;8.344;2023-05-14T03:18:57;94178.28;;;8.69;80.30
37972;BME280;23794;48.234;8.344;2023-05-14T03:21:24;94175.16;;;8.60;80.85
37972;BME280;23794;48.234;8.344;2023-05-14T03:23:51;94170.09;;;8.62;80.42
37972;BME280;23794;48.234;8.344;2023-05-14T03:26:18;94171.25;;;8.61;79.82
37972;BME280;23794;48.234;8.344;2023-05-14T03:28:44;94177.06;;;8.52;79.68
37972;BME280;23794;48.234;8.344;2023-05-14T03:31:11;94172.41;;;8.45;79.83
37972;BME280;23794;48.234;8.344;2023-05-14T03:33:38;94175.13;;;8.31;80.57
37972;BME280;23794;48.234;8.344;2023-05-14T03:36:04;94182.91;;;8.25;80.86
37972;BME280;23794;48.234;8.344;2023-05-14T03:38:31;94177.84;;;8.31;81.05
37972;BME280;23794;48.234;8.344;2023-05-14T03:40:57;94172.38;;;8.31;80.91
37972;BME280;23794;48.234;8.344;2023-05-14T03:43:24;94179.41;;;8.25;81.39
37972;BME280;23794;48.234;8.344;2023-05-14T03:45:51;94173.94;;;8.28;81.50
37972;BME280;23794;48.234;8.344;2023-05-14T03:48:18;94168.88;;;8.34;81.43
37972;BME280;23794;48.234;8.344;2023-05-14T03:50:45;94173.97;;;8.43;81.47
37972;BME280;23794;48.234;8.344;2023-05-14T03:53:12;94174.72;;;8.36;81.22
37972;BME280;23794;48.234;8.344;2023-05-14T03:55:39;94161.84;;;8.33;81.82
37972;BME280;23794;48.234;8.344;2023-05-14T03:58:09;94167.69;;;8.31;81.94
37972;BME280;23794;48.234;8.344;2023-05-14T04:00:42;94173.94;;;8.32;81.88
37972;BME280;23794;48.234;8.344;2023-05-14T04:03:09;94168.88;;;8.41;81.03
37972;BME280;23794;48.234;8.344;2023-05-14T04:05:36;94184.06;;;8.31;81.56
37972;BME280;23794;48.234;8.344;2023-05-14T04:08:03;94179.78;;;8.27;81.95
37972;BME280;23794;48.234;8.344;2023-05-14T04:10:30;94182.16;;;8.35;81.87
37972;BME280;23794;48.234;8.344;2023-05-14T04:12:58;94177.88;;;8.45;81.37
37972;BME280;23794;48.234;8.344;2023-05-14T04:15:29;94175.13;;;8.45;81.40
37972;BME280;23794;48.234;8.344;2023-05-14T04:17:56;94172.00;;;8.40;81.64
37972;BME280;23794;48.234;8.344;2023-05-14T04:20:23;94176.31;;;8.44;81.64
37972;BME280;23794;48.234;8.344;2023-05-14T04:22:49;94174.75;;;8.54;80.93
37972;BME280;23794;48.234;8.344;2023-05-14T04:25:16;94178.28;;;8.55;80.98
37972;BME280;23794;48.234;8.344;2023-05-14T04:27:43;94177.09;;;8.56;81.48
37972;BME280;23794;48.234;8.344;2023-05-14T04:30:10;94181.78;;;8.51;81.97
37972;BME280;23794;48.234;8.344;2023-05-14T04:32:37;94187.63;;;8.54;82.21
37972;BME280;23794;48.234;8.344;2023-05-14T04:35:04;94182.53;;;8.59;82.03
37972;BME280;23794;48.234;8.344;2023-05-14T04:37:31;94175.16;;;8.63;81.42
37972;BME280;23794;48.234;8.344;2023-05-14T04:39:58;94182.59;;;8.70;81.88
37972;BME280;23794;48.234;8.344;2023-05-14T04:42:25;94177.50;;;8.68;81.85
37972;BME280;23794;48.234;8.344;2023-05-14T04:44:51;94181.03;;;8.76;82.09
37972;BME280;23794;48.234;8.344;2023-05-14T04:47:18;94188.81;;;8.85;82.09
37972;BME280;23794;48.234;8.344;2023-05-14T04:49:46;94176.31;;;8.88;82.36
37972;BME280;23794;48.234;8.344;2023-05-14T04:52:13;94178.28;;;8.87;81.63
37972;BME280;23794;48.234;8.344;2023-05-14T04:54:39;94179.84;;;8.99;81.95
37972;BME280;23794;48.234;8.344;2023-05-14T04:57:06;94179.03;;;9.13;81.52
37972;BME280;23794;48.234;8.344;2023-05-14T04:59:32;94179.44;;;9.19;81.24
37972;BME280;23794;48.234;8.344;2023-05-14T05:01:59;94179.44;;;9.19;80.87
37972;BME280;23794;48.234;8.344;2023-05-14T05:04:26;94181.75;;;9.17;80.78
37972;BME280;23794;48.234;8.344;2023-05-14T05:06:53;94177.50;;;9.12;81.29
37972;BME280;23794;48.234;8.344;2023-05-14T05:09:19;94178.28;;;9.09;81.73
37972;BME280;23794;48.234;8.344;2023-05-14T05:11:46;94177.09;;;9.17;81.38
37972;BME280;23794;48.234;8.344;2023-05-14T05:14:12;94185.28;;;9.21;81.80
37972;BME280;23794;48.234;8.344;2023-05-14T05:16:39;94173.53;;;9.31;81.35
37972;BME280;23794;48.234;8.344;2023-05-14T05:19:06;94176.69;;;9.26;81.12
37972;BME280;23794;48.234;8.344;2023-05-14T05:21:32;94174.34;;;9.24;81.83
37972;BME280;23794;48.234;8.344;2023-05-14T05:23:59;94176.28;;;9.35;81.58
37972;BME280;23794;48.234;8.344;2023-05-14T05:26:26;94172.00;;;9.41;81.36
37972;BME280;23794;48.234;8.344;2023-05-14T05:28:53;94179.81;;;9.39;81.69
37972;BME280;23794;48.234;8.344;2023-05-14T05:31:19;94174.34;;;9.42;81.32
37972;BME280;23794;48.234;8.344;2023-05-14T05:33:46;94172.38;;;9.57;81.40
37972;BME280;23794;48.234;8.344;2023-05-14T05:36:13;94177.00;;;9.64;80.85
37972;BME280;23794;48.234;8.344;2023-05-14T05:38:39;94179.34;;;9.66;80.54
37972;BME280;23794;48.234;8.344;2023-05-14T05:41:06;94180.91;;;9.70;80.80
37972;BME280;23794;48.234;8.344;2023-05-14T05:43:33;94179.00;;;9.60;80.76
37972;BME280;23794;48.234;8.344;2023-05-14T05:46:00;94173.47;;;9.74;80.69
37972;BME280;23794;48.234;8.344;2023-05-14T05:48:27;94174.66;;;9.73;80.66
37972;BME280;23794;48.234;8.344;2023-05-14T05:50:53;94174.63;;;9.77;80.45
37972;BME280;23794;48.234;8.344;2023-05-14T05:53:20;94180.47;;;9.90;80.31
37972;BME280;23794;48.234;8.344;2023-05-14T05:55:47;94180.41;;;9.97;80.69
37972;BME280;23794;48.234;8.344;2023-05-14T05:58:13;94171.72;;;10.17;79.85
37972;BME280;23794;48.234;8.344;2023-05-14T06:00:42;94175.19;;;10.32;79.89
37972;BME280;23794;48.234;8.344;2023-05-14T06:03:10;94169.19;;;10.48;79.41
37972;BME280;23794;48.234;8.344;2023-05-14T06:05:36;94173.06;;;10.54;77.25
37972;BME280;23794;48.234;8.344;2023-05-14T06:08:03;94166.03;;;10.53;78.79
37972;BME280;23794;48.234;8.344;2023-05-14T06:10:30;94161.66;;;10.66;77.74
37972;BME280;23794;48.234;8.344;2023-05-14T06:12:56;94158.41;;;10.79;77.73
37972;BME280;23794;48.234;8.344;2023-05-14T06:15:23;94157.50;;;10.96;77.87
37972;BME280;23794;48.234;8.344;2023-05-14T06:17:50;94172.75;;;11.01;77.33
37972;BME280;23794;48.234;8.344;2023-05-14T06:20:17;94165.88;;;10.78;76.30
37972;BME280;23794;48.234;8.344;2023-05-14T06:22:47;94163.47;;;10.84;76.50
37972;BME280;23794;48.234;8.344;2023-05-14T06:25:14;94167.69;;;10.92;76.45
37972;BME280;23794;48.234;8.344;2023-05-14T06:27:41;94167.31;;;10.90;76.09
37972;BME280;23794;48.234;8.344;2023-05-14T06:30:08;94170.44;;;10.92;76.47
37972;BME280;23794;48.234;8.344;2023-05-14T06:32:36;94173.28;;;10.81;75.21
37972;BME280;23794;48.234;8.344;2023-05-14T06:35:03;94171.00;;;10.72;75.39
37972;BME280;23794;48.234;8.344;2023-05-14T06:37:30;94167.88;;;10.70;76.64
37972;BME280;23794;48.234;8.344;2023-05-14T06:39:56;94174.50;;;10.73;75.89
37972;BME280;23794;48.234;8.344;2023-05-14T06:42:23;94171.72;;;10.77;75.52
37972;BME280;23794;48.234;8.344;2023-05-14T06:44:50;94166.53;;;10.93;75.32
37972;BME280;23794;48.234;8.344;2023-05-14T06:47:17;94171.53;;;11.05;75.27
37972;BME280;23794;48.234;8.344;2023-05-14T06:49:43;94169.63;;;11.02;74.85
37972;BME280;23794;48.234;8.344;2023-05-14T06:52:10;94181.19;;;10.68;74.03
37972;BME280;23794;48.234;8.344;2023-05-14T06:54:37;94178.09;;;10.66;75.45
37972;BME280;23794;48.234;8.344;2023-05-14T06:57:04;94182.41;;;10.60;74.93
37972;BME280;23794;48.234;8.344;2023-05-14T06:59:31;94177.38;;;10.51;74.68
37972;BME280;23794;48.234;8.344;2023-05-14T07:01:58;94177.84;;;10.43;75.94
37972;BME280;23794;48.234;8.344;2023-05-14T07:04:28;94166.50;;;10.40;76.22
37972;BME280;23794;48.234;8.344;2023-05-14T07:06:55;94173.94;;;10.44;76.35
37972;BME280;23794;48.234;8.344;2023-05-14T07:09:22;94170.31;;;10.57;75.64
37972;BME280;23794;48.234;8.344;2023-05-14T07:11:48;94178.97;;;10.52;75.61
37972;BME280;23794;48.234;8.344;2023-05-14T07:14:15;94171.06;;;10.65;76.07
37972;BME280;23794;48.234;8.344;2023-05-14T07:16:42;94171.69;;;10.84;75.82
37972;BME280;23794;48.234;8.344;2023-05-14T07:19:08;94170.03;;;10.97;75.96
37972;BME280;23794;48.234;8.344;2023-05-14T07:21:35;94170.28;;;11.14;75.87
37972;BME280;23794;48.234;8.344;2023-05-14T07:24:02;94165.78;;;11.38;75.57
37972;BME280;23794;48.234;8.344;2023-05-14T07:26:29;94164.03;;;11.55;74.02
37972;BME280;23794;48.234;8.344;2023-05-14T07:28:56;94159.16;;;11.70;74.31
37972;BME280;23794;48.234;8.344;2023-05-14T07:31:23;94150.06;;;11.77;73.46
37972;BME280;23794;48.234;8.344;2023-05-14T07:33:50;94152.72;;;11.84;73.06
37972;BME280;23794;48.234;8.344;2023-05-14T07:36:17;94144.34;;;11.95;71.96
37972;BME280;23794;48.234;8.344;2023-05-14T07:38:44;94149.94;;;11.88;72.36
37972;BME280;23794;48.234;8.344;2023-05-14T07:41:10;94157.47;;;12.11;72.89
37972;BME280;23794;48.234;8.344;2023-05-14T07:43:37;94156.84;;;12.30;72.98
37972;BME280;23794;48.234;8.344;2023-05-14T07:46:06;94150.44;;;12.41;71.98
37972;BME280;23794;48.234;8.344;2023-05-14T07:48:32;94152.91;;;12.62;71.81
37972;BME280;23794;48.234;8.344;2023-05-14T07:50:59;94155.22;;;12.64;70.22
37972;BME280;23794;48.234;8.344;2023-05-14T07:53:26;94151.25;;;12.41;70.69
37972;BME280;23794;48.234;8.344;2023-05-14T07:55:52;94159.44;;;12.45;70.51
37972;BME280;23794;48.234;8.344;2023-05-14T07:58:19;94155.59;;;12.39;71.69
37972;BME280;23794;48.234;8.344;2023-05-14T08:00:46;94154.44;;;12.36;71.62
37972;BME280;23794;48.234;8.344;2023-05-14T08:03:13;94158.25;;;12.46;71.54
37972;BME280;23794;48.234;8.344;2023-05-14T08:05:40;94157.50;;;12.42;70.54
37972;BME280;23794;48.234;8.344;2023-05-14T08:08:07;94152.75;;;12.46;70.94
37972;BME280;23794;48.234;8.344;2023-05-14T08:10:33;94165.34;;;12.43;70.88
37972;BME280;23794;48.234;8.344;2023-05-14T08:13:00;94156.63;;;12.49;70.94
37972;BME280;23794;48.234;8.344;2023-05-14T08:15:26;94154.44;;;12.36;69.67
37972;BME280;23794;48.234;8.344;2023-05-14T08:17:55;94151.03;;;12.25;70.31
37972;BME280;23794;48.234;8.344;2023-05-14T08:20:24;94152.16;;;12.27;71.22
37972;BME280;23794;48.234;8.344;2023-05-14T08:22:51;94156.31;;;12.43;71.33
37972;BME280;23794;48.234;8.344;2023-05-14T08:25:18;94154.19;;;12.54;71.01
37972;BME280;23794;48.234;8.344;2023-05-14T08:27:44;94148.81;;;12.47;68.89
37972;BME280;23794;48.234;8.344;2023-05-14T08:30:11;94158.84;;;12.57;70.16
37972;BME280;23794;48.234;8.344;2023-05-14T08:32:38;94151.34;;;12.61;70.00
37972;BME280;23794;48.234;8.344;2023-05-14T08:35:05;94153.47;;;12.50;70.48
37972;BME280;23794;48.234;8.344;2023-05-14T08:37:32;94154.34;;;12.43;69.66
37972;BME280;23794;48.234;8.344;2023-05-14T08:39:58;94150.94;;;12.32;70.74
37972;BME280;23794;48.234;8.344;2023-05-14T08:42:25;94158.75;;;12.34;70.76
37972;BME280;23794;48.234;8.344;2023-05-14T08:45:01;94153.44;;;12.19;70.72
37972;BME280;23794;48.234;8.344;2023-05-14T08:47:29;94148.84;;;12.12;71.69
37972;BME280;23794;48.234;8.344;2023-05-14T08:50:06;94143.38;;;12.12;70.13
37972;BME280;23794;48.234;8.344;2023-05-14T08:52:34;94148.63;;;11.99;71.18
37972;BME280;23794;48.234;8.344;2023-05-14T08:55:04;94147.00;;;12.02;70.77
37972;BME280;23794;48.234;8.344;2023-05-14T08:57:32;94142.00;;;11.97;70.10
37972;BME280;23794;48.234;8.344;2023-05-14T09:00:00;94144.28;;;12.02;72.28
37972;BME280;23794;48.234;8.344;2023-05-14T09:02:29;94137.44;;;12.45;71.33
37972;BME280;23794;48.234;8.344;2023-05-14T09:05:04;94129.22;;;13.20;70.19
37972;BME280;23794;48.234;8.344;2023-05-14T09:07:41;94133.75;;;13.74;68.69
37972;BME280;23794;48.234;8.344;2023-05-14T09:10:16;94123.94;;;13.93;63.36
37972;BME280;23794;48.234;8.344;2023-05-14T09:12:46;94123.31;;;14.22;65.56
37972;BME280;23794;48.234;8.344;2023-05-14T09:15:16;94118.78;;;14.32;64.40
37972;BME280;23794;48.234;8.344;2023-05-14T09:17:43;94112.50;;;14.31;63.66
37972;BME280;23794;48.234;8.344;2023-05-14T09:20:13;94110.78;;;14.01;63.47
37972;BME280;23794;48.234;8.344;2023-05-14T09:22:40;94122.50;;;13.85;63.56
37972;BME280;23794;48.234;8.344;2023-05-14T09:25:08;94117.00;;;13.85;62.88
37972;BME280;23794;48.234;8.344;2023-05-14T09:27:37;94106.31;;;14.07;64.09
37972;BME280;23794;48.234;8.344;2023-05-14T09:30:11;94102.88;;;14.40;62.82
37972;BME280;23794;48.234;8.344;2023-05-14T09:32:41;94111.41;;;14.62;60.96
37972;BME280;23794;48.234;8.344;2023-05-14T09:35:21;94100.91;;;14.73;59.97
37972;BME280;23794;48.234;8.344;2023-05-14T09:37:52;94105.06;;;14.65;58.83
37972;BME280;23794;48.234;8.344;2023-05-14T09:40:22;94106.56;;;14.33;60.21
37972;BME280;23794;48.234;8.344;2023-05-14T09:42:50;94100.03;;;14.07;60.38
37972;BME280;23794;48.234;8.344;2023-05-14T09:45:16;94104.22;;;13.74;62.21
37972;BME280;23794;48.234;8.344;2023-05-14T09:47:43;94110.53;;;13.75;63.67
37972;BME280;23794;48.234;8.344;2023-05-14T09:50:11;94106.81;;;13.62;63.62
37972;BME280;23794;48.234;8.344;2023-05-14T09:52:38;94098.50;;;13.45;63.50
37972;BME280;23794;48.234;8.344;2023-05-14T09:55:05;94098.16;;;13.83;63.26
37972;BME280;23794;48.234;8.344;2023-05-14T09:57:33;94093.44;;;14.20;61.28
37972;BME280;23794;48.234;8.344;2023-05-14T10:00:00;94094.69;;;14.52;60.28
37972;BME280;23794;48.234;8.344;2023-05-14T10:02:34;94090.22;;;14.59;59.52
37972;BME280;23794;48.234;8.344;2023-05-14T10:05:07;94093.06;;;14.55;59.22
37972;BME280;23794;48.234;8.344;2023-05-14T10:07:46;94087.19;;;14.36;58.99
37972;BME280;23794;48.234;8.344;2023-05-14T10:10:18;94098.38;;;14.29;59.70
37972;BME280;23794;48.234;8.344;2023-05-14T10:12:56;94084.44;;;14.00;61.86
37972;BME280;23794;48.234;8.344;2023-05-14T10:15:29;94093.56;;;13.97;60.59
37972;BME280;23794;48.234;8.344;2023-05-14T10:18:02;94093.78;;;14.06;61.20
37972;BME280;23794;48.234;8.344;2023-05-14T10:20:31;94095.97;;;13.95;58.64
37972;BME280;23794;48.234;8.344;2023-05-14T10:22:58;94096.75;;;13.95;59.88
37972;BME280;23794;48.234;8.344;2023-05-14T10:25:25;94089.69;;;13.94;58.97
37972;BME280;23794;48.234;8.344;2023-05-14T10:27:52;94095.25;;;14.27;58.77
37972;BME280;23794;48.234;8.344;2023-05-14T10:30:20;94091.53;;;14.54;58.04
37972;BME280;23794;48.234;8.344;2023-05-14T10:33:11;94085.75;;;14.65;58.25
37972;BME280;23794;48.234;8.344;2023-05-14T10:36:00;94083.09;;;14.78;56.59
37972;BME280;23794;48.234;8.344;2023-05-14T10:38:33;94080.84;;;14.73;58.37
37972;BME280;23794;48.234;8.344;2023-05-14T10:41:04;94083.84;;;14.78;58.85
37972;BME280;23794;48.234;8.344;2023-05-14T10:43:36;94088.50;;;14.65;57.94
37972;BME280;23794;48.234;8.344;2023-05-14T10:46:04;94080.63;;;14.30;58.36
37972;BME280;23794;48.234;8.344;2023-05-14T10:48:31;94087.03;;;14.07;59.33
37972;BME280;23794;48.234;8.344;2023-05-14T10:50:59;94081.47;;;14.27;58.68
37972;BME280;23794;48.234;8.344;2023-05-14T10:53:32;94086.34;;;14.40;58.50
37972;BME280;23794;48.234;8.344;2023-05-14T10:56:07;94079.44;;;14.31;57.92
37972;BME280;23794;48.234;8.344;2023-05-14T10:58:35;94074.03;;;14.44;57.66
37972;BME280;23794;48.234;8.344;2023-05-14T11:01:04;94066.81;;;14.67;57.13
37972;BME280;23794;48.234;8.344;2023-05-14T11:03:38;94069.97;;;15.15;54.79
37972;BME280;23794;48.234;8.344;2023-05-14T11:06:06;94060.44;;;15.32;54.93
37972;BME280;23794;48.234;8.344;2023-05-14T11:08:33;94062.69;;;15.51;53.78
37972;BME280;23794;48.234;8.344;2023-05-14T11:10:59;94052.09;;;15.49;53.69
37972;BME280;23794;48.234;8.344;2023-05-14T11:13:26;94048.53;;;15.36;53.30
37972;BME280;23794;48.234;8.344;2023-05-14T11:15:53;94049.72;;;15.05;55.44
37972;BME280;23794;48.234;8.344;2023-05-14T11:18:33;94049.56;;;14.63;55.71
37972;BME280;23794;48.234;8.344;2023-05-14T11:21:03;94058.50;;;14.17;57.72
37972;BME280;23794;48.234;8.344;2023-05-14T11:23:30;94052.72;;;13.75;61.54
37972;BME280;23794;48.234;8.344;2023-05-14T11:25:57;94055.31;;;13.62;62.66
37972;BME280;23794;48.234;8.344;2023-05-14T11:28:25;94054.34;;;13.52;62.07
37972;BME280;23794;48.234;8.344;2023-05-14T11:30:52;94051.00;;;13.61;62.05
37972;BME280;23794;48.234;8.344;2023-05-14T11:33:19;94054.44;;;13.69;64.19
37972;BME280;23794;48.234;8.344;2023-05-14T11:35:46;94047.00;;;13.86;64.11
37972;BME280;23794;48.234;8.344;2023-05-14T11:38:18;94037.47;;;15.06;59.88
37972;BME280;23794;48.234;8.344;2023-05-14T11:40:53;94034.69;;;16.59;58.77
37972;BME280;23794;48.234;8.344;2023-05-14T11:43:20;94026.03;;;17.18;53.25
37972;BME280;23794;48.234;8.344;2023-05-14T11:45:50;94022.59;;;16.79;51.59
37972;BME280;23794;48.234;8.344;2023-05-14T11:48:18;94021.84;;;16.52;53.95
37972;BME280;23794;48.234;8.344;2023-05-14T11:50:50;94017.22;;;16.23;53.59
37972;BME280;23794;48.234;8.344;2023-05-14T11:53:25;94013.09;;;15.76;52.52
37972;BME280;23794;48.234;8.344;2023-05-14T11:55:52;94028.41;;;15.22;53.62
37972;BME280;23794;48.234;8.344;2023-05-14T11:58:20;94026.56;;;14.69;56.19
37972;BME280;23794;48.234;8.344;2023-05-14T12:00:51;94031.31;;;14.19;57.99
37972;BME280;23794;48.234;8.344;2023-05-14T12:03:18;94040.56;;;14.09;60.61
37972;BME280;23794;48.234;8.344;2023-05-14T12:05:59;94041.94;;;14.01;61.30
37972;BME280;23794;48.234;8.344;2023-05-14T12:08:29;94038.41;;;14.00;60.27
37972;BME280;23794;48.234;8.344;2023-05-14T12:10:58;94036.50;;;13.97;61.13
37972;BME280;23794;48.234;8.344;2023-05-14T12:13:26;94031.06;;;13.94;62.53
37972;BME280;23794;48.234;8.344;2023-05-14T12:15:54;94030.34;;;14.10;62.70
37972;BME280;23794;48.234;8.344;2023-05-14T12:18:26;94030.63;;;14.32;61.64
37972;BME280;23794;48.234;8.344;2023-05-14T12:20:52;94022.00;;;14.79;60.73
37972;BME280;23794;48.234;8.344;2023-05-14T12:23:29;94016.50;;;15.80;60.32
37972;BME280;23794;48.234;8.344;2023-05-14T12:26:04;94006.00;;;16.79;57.32
37972;BME280;23794;48.234;8.344;2023-05-14T12:28:32;94000.00;;;17.28;56.90
37972;BME280;23794;48.234;8.344;2023-05-14T12:31:03;94000.56;;;17.45;54.87
37972;BME280;23794;48.234;8.344;2023-05-14T12:33:29;93999.28;;;17.15;55.06
37972;BME280;23794;48.234;8.344;2023-05-14T12:35:56;94002.81;;;16.67;55.52
37972;BME280;23794;48.234;8.344;2023-05-14T12:38:39;94002.09;;;16.15;56.83
37972;BME280;23794;48.234;8.344;2023-05-14T12:41:06;93999.34;;;15.60;56.28
37972;BME280;23794;48.234;8.344;2023-05-14T12:43:33;94001.56;;;15.23;59.56
37972;BME280;23794;48.234;8.344;2023-05-14T12:45:59;94003.72;;;15.44;60.17
37972;BME280;23794;48.234;8.344;2023-05-14T12:48:26;94000.94;;;15.74;59.17
37972;BME280;23794;48.234;8.344;2023-05-14T12:50:53;93996.53;;;15.89;58.30
37972;BME280;23794;48.234;8.344;2023-05-14T12:53:19;94003.16;;;15.79;57.05
37972;BME280;23794;48.234;8.344;2023-05-14T12:55:46;94000.91;;;15.61;58.57
37972;BME280;23794;48.234;8.344;2023-05-14T12:58:13;94001.13;;;15.54;57.58
37972;BME280;23794;48.234;8.344;2023-05-14T13:00:39;93997.50;;;15.27;57.97
37972;BME280;23794;48.234;8.344;2023-05-14T13:03:06;93985.81;;;15.23;59.67
37972;BME280;23794;48.234;8.344;2023-05-14T13:05:33;93998.63;;;15.00;59.05
37972;BME280;23794;48.234;8.344;2023-05-14T13:08:00;94012.72;;;14.90;59.00
37972;BME280;23794;48.234;8.344;2023-05-14T13:10:30;94016.84;;;14.48;61.63
37972;BME280;23794;48.234;8.344;2023-05-14T13:12:57;94023.44;;;14.01;63.60
37972;BME280;23794;48.234;8.344;2023-05-14T13:15:23;94035.69;;;13.80;63.32
37972;BME280;23794;48.234;8.344;2023-05-14T13:17:51;94045.38;;;13.68;64.19